Weather at Baie-Comeau (Manic 1) Airport

Public forecast

Using degrees Celsius for public forecast. Weather courtesy of forecast.io.

Closest aviation weather report (METAR) to Baie-Comeau (Manic 1) Airport

Closest report is Baie-Comeau Airport, 6.9 nm (12.9 km) ESE. Retrieved 2021/01/20 16:00 UTC (8 minutes ago):

CYBC 201600Z AUTO 33008KT 9SM CLR M16/M22 A2987 RMK SLP121

Closest aviation forecast (TAF) to Baie-Comeau (Manic 1) Airport

Closest forecast is Baie-Comeau Airport, 6.9 nm (12.9 km) ESE. Retrieved 2021/01/20 14:00 UTC (2 hours ago):

TAF CYBC 201339Z 2014/2102 30006KT P6SM FEW080 SCT210 RMK FCST BASED ON AUTO OBS NXT FCST BY 202000Z